sensor_id;sensor_type;location;lat;lon;timestamp;P1;P2;P0
74430;PMS7003;62863;52.062;23.764;2024-01-27T00:04:07;11;9;7.4
74430;PMS7003;62863;52.062;23.764;2024-01-27T00:09:04;9.4;8;6.4
74430;PMS7003;62863;52.062;23.764;2024-01-27T00:14:25;9.4;9;6.6
74430;PMS7003;62863;52.062;23.764;2024-01-27T00:19:35;13.4;10.2;7.8
74430;PMS7003;62863;52.062;23.764;2024-01-27T00:24:27;11.4;10;7.2
74430;PMS7003;62863;52.062;23.764;2024-01-27T00:29:00;12.5;9.5;7.8
74430;PMS7003;62863;52.062;23.764;2024-01-27T00:34:34;12.2;10;7.6
74430;PMS7003;62863;52.062;23.764;2024-01-27T00:38:59;12.8;10.6;8
74430;PMS7003;62863;52.062;23.764;2024-01-27T00:44:35;14.2;13.2;9.2
74430;PMS7003;62863;52.062;23.764;2024-01-27T00:49:35;12.8;11.6;8.2
74430;PMS7003;62863;52.062;23.764;2024-01-27T00:54:25;16;14.2;11.6
74430;PMS7003;62863;52.062;23.764;2024-01-27T00:58:59;25.8;21.2;16.4
74430;PMS7003;62863;52.062;23.764;2024-01-27T01:04:21;17.4;15.4;11.8
74430;PMS7003;62863;52.062;23.764;2024-01-27T01:09:26;20.4;16.8;13.2
74430;PMS7003;62863;52.062;23.764;2024-01-27T01:14:35;14.4;12.6;9.8
74430;PMS7003;62863;52.062;23.764;2024-01-27T01:19:10;15.6;13.2;9.4
74430;PMS7003;62863;52.062;23.764;2024-01-27T01:24:35;14.8;12.4;8.8
74430;PMS7003;62863;52.062;23.764;2024-01-27T01:29:23;15.8;14.8;10.3
74430;PMS7003;62863;52.062;23.764;2024-01-27T01:33:59;16.8;11.4;8.4
74430;PMS7003;62863;52.062;23.764;2024-01-27T01:39:06;16.6;14;9.2
74430;PMS7003;62863;52.062;23.764;2024-01-27T01:44:13;14.6;13.8;9.6
74430;PMS7003;62863;52.062;23.764;2024-01-27T01:49:04;19.2;16;10.8
74430;PMS7003;62863;52.062;23.764;2024-01-27T01:54:05;21;16.6;13.4
74430;PMS7003;62863;52.062;23.764;2024-01-27T01:59:07;19.8;17;11.8
74430;PMS7003;62863;52.062;23.764;2024-01-27T02:04:13;20.2;17.6;11.6
74430;PMS7003;62863;52.062;23.764;2024-01-27T02:09:15;17;15;10.8
74430;PMS7003;62863;52.062;23.764;2024-01-27T02:14:13;15;12.6;9.6
74430;PMS7003;62863;52.062;23.764;2024-01-27T02:19:35;16.4;15.2;11.6
74430;PMS7003;62863;52.062;23.764;2024-01-27T02:24:15;16.2;15;10
74430;PMS7003;62863;52.062;23.764;2024-01-27T02:29:01;19;14;10
74430;PMS7003;62863;52.062;23.764;2024-01-27T02:34:11;17.6;15.6;10.8
74430;PMS7003;62863;52.062;23.764;2024-01-27T02:39:21;19.6;15.8;11
74430;PMS7003;62863;52.062;23.764;2024-01-27T02:44:19;18.6;16.2;11
74430;PMS7003;62863;52.062;23.764;2024-01-27T02:49:35;18.6;16;11.8
74430;PMS7003;62863;52.062;23.764;2024-01-27T02:54:25;19.2;18.2;11.6
74430;PMS7003;62863;52.062;23.764;2024-01-27T02:59:35;23.4;19.6;14
74430;PMS7003;62863;52.062;23.764;2024-01-27T03:04:35;21.4;15.8;12
74430;PMS7003;62863;52.062;23.764;2024-01-27T03:09:27;21.4;16.6;11.4
74430;PMS7003;62863;52.062;23.764;2024-01-27T03:14:05;27;23.6;16.6
74430;PMS7003;62863;52.062;23.764;2024-01-27T03:18:59;24;22;14.4
74430;PMS7003;62863;52.062;23.764;2024-01-27T03:23:59;24;20.4;14
74430;PMS7003;62863;52.062;23.764;2024-01-27T03:29:05;19.6;16.2;11.2
74430;PMS7003;62863;52.062;23.764;2024-01-27T03:34:27;21.3;16.5;12.5
74430;PMS7003;62863;52.062;23.764;2024-01-27T03:39:05;18.4;16.2;11
74430;PMS7003;62863;52.062;23.764;2024-01-27T03:44:35;18.6;17.2;12.8
74430;PMS7003;62863;52.062;23.764;2024-01-27T03:49:27;21.2;16.2;11
74430;PMS7003;62863;52.062;23.764;2024-01-27T03:54:35;20.6;16.4;11.8
74430;PMS7003;62863;52.062;23.764;2024-01-27T03:58:59;20;17.2;11.4
74430;PMS7003;62863;52.062;23.764;2024-01-27T04:04:25;20.4;16.8;10.8
74430;PMS7003;62863;52.062;23.764;2024-01-27T04:08:59;22.8;18;12.4
74430;PMS7003;62863;52.062;23.764;2024-01-27T04:14:21;26.2;19;13.2
74430;PMS7003;62863;52.062;23.764;2024-01-27T04:19:35;21.6;19.2;13.2
74430;PMS7003;62863;52.062;23.764;2024-01-27T04:24:07;21.8;19.2;12.2
74430;PMS7003;62863;52.062;23.764;2024-01-27T04:29:17;24.2;19.6;13.4
74430;PMS7003;62863;52.062;23.764;2024-01-27T04:34:35;24.8;23;15.8
74430;PMS7003;62863;52.062;23.764;2024-01-27T04:39:35;29.8;25.4;16.4
74430;PMS7003;62863;52.062;23.764;2024-01-27T04:44:27;27.8;23.4;16
74430;PMS7003;62863;52.062;23.764;2024-01-27T04:49:11;23.6;21;13.8
74430;PMS7003;62863;52.062;23.764;2024-01-27T04:53:59;23.8;20.6;13.2
74430;PMS7003;62863;52.062;23.764;2024-01-27T04:59:05;25.4;22.4;15.2
74430;PMS7003;62863;52.062;23.764;2024-01-27T05:04:05;27;24.2;16.8
74430;PMS7003;62863;52.062;23.764;2024-01-27T05:08:59;36.6;30.6;19.6
74430;PMS7003;62863;52.062;23.764;2024-01-27T05:14:21;52;41.4;27.8
74430;PMS7003;62863;52.062;23.764;2024-01-27T05:19:21;51.2;40.8;26.6
74430;PMS7003;62863;52.062;23.764;2024-01-27T05:24:13;38;31;20.8
74430;PMS7003;62863;52.062;23.764;2024-01-27T05:29:36;33.2;29.6;20.4
74430;PMS7003;62863;52.062;23.764;2024-01-27T05:34:23;31.3;27.5;17.5
74430;PMS7003;62863;52.062;23.764;2024-01-27T05:39:15;32;25;16.6
74430;PMS7003;62863;52.062;23.764;2024-01-27T05:44:11;28;23.2;15.4
74430;PMS7003;62863;52.062;23.764;2024-01-27T05:49:15;22.6;20;14.2
74430;PMS7003;62863;52.062;23.764;2024-01-27T05:54:35;22.2;19.6;12.8
74430;PMS7003;62863;52.062;23.764;2024-01-27T05:59:11;21;17.4;11.6
74430;PMS7003;62863;52.062;23.764;2024-01-27T06:04:27;19.8;16.6;11.8
74430;PMS7003;62863;52.062;23.764;2024-01-27T06:09:27;15.8;14.2;9.4
74430;PMS7003;62863;52.062;23.764;2024-01-27T06:14:25;14.8;12.8;9
74430;PMS7003;62863;52.062;23.764;2024-01-27T06:19:17;17.6;14;9.2
74430;PMS7003;62863;52.062;23.764;2024-01-27T06:24:01;16;12.8;10.2
74430;PMS7003;62863;52.062;23.764;2024-01-27T06:29:07;17.8;17;11.8
74430;PMS7003;62863;52.062;23.764;2024-01-27T06:34:19;16;13.8;9
74430;PMS7003;62863;52.062;23.764;2024-01-27T06:38:59;11;9.2;6.4
74430;PMS7003;62863;52.062;23.764;2024-01-27T06:44:11;13.8;11.8;8
74430;PMS7003;62863;52.062;23.764;2024-01-27T06:48:59;10.4;9;6.2
74430;PMS7003;62863;52.062;23.764;2024-01-27T06:54:35;11;7.4;5
74430;PMS7003;62863;52.062;23.764;2024-01-27T06:59:27;7.8;7;4.6
74430;PMS7003;62863;52.062;23.764;2024-01-27T07:04:33;6.4;5;4
74430;PMS7003;62863;52.062;23.764;2024-01-27T07:09:35;7.6;6;4
74430;PMS7003;62863;52.062;23.764;2024-01-27T07:14:13;8;6.8;4.8
74430;PMS7003;62863;52.062;23.764;2024-01-27T07:19:35;12;10.8;7.6
74430;PMS7003;62863;52.062;23.764;2024-01-27T07:24:35;11.8;10.2;7.6
74430;PMS7003;62863;52.062;23.764;2024-01-27T07:29:19;12.6;9.8;6.6
74430;PMS7003;62863;52.062;23.764;2024-01-27T07:34:05;11.5;9.5;6.8
74430;PMS7003;62863;52.062;23.764;2024-01-27T07:39:21;18;15.8;10.2
74430;PMS7003;62863;52.062;23.764;2024-01-27T07:44:21;16;14.4;9.6
74430;PMS7003;62863;52.062;23.764;2024-01-27T07:49:35;12.6;9.6;7.2
74430;PMS7003;62863;52.062;23.764;2024-01-27T07:54:17;18.2;15.8;11.2
74430;PMS7003;62863;52.062;23.764;2024-01-27T07:59:07;30.2;26.6;17
74430;PMS7003;62863;52.062;23.764;2024-01-27T08:04:07;29.6;25;16.8
74430;PMS7003;62863;52.062;23.764;2024-01-27T08:08:59;29.2;26.6;18.6
74430;PMS7003;62863;52.062;23.764;2024-01-27T08:13:59;33.2;29.8;19.2
74430;PMS7003;62863;52.062;23.764;2024-01-27T08:18:59;24;19.8;13.6
74430;PMS7003;62863;52.062;23.764;2024-01-27T08:24:05;31.4;26.4;17.6
74430;PMS7003;62863;52.062;23.764;2024-01-27T08:29:29;27.8;24.2;17.2
74430;PMS7003;62863;52.062;23.764;2024-01-27T08:34:07;51.4;42.4;26.2
74430;PMS7003;62863;52.062;23.764;2024-01-27T08:39:35;42.5;36.3;22.5
74430;PMS7003;62863;52.062;23.764;2024-01-27T08:44:27;18.2;15;10.4
74430;PMS7003;62863;52.062;23.764;2024-01-27T08:49:27;33.6;27.6;18.8
74430;PMS7003;62863;52.062;23.764;2024-01-27T08:54:35;25.8;22.6;16.8
74430;PMS7003;62863;52.062;23.764;2024-01-27T08:59:35;20.8;17;12.4
74430;PMS7003;62863;52.062;23.764;2024-01-27T09:04:25;14.8;12.8;9.8
74430;PMS7003;62863;52.062;23.764;2024-01-27T09:09:11;18.6;16;11.6
74430;PMS7003;62863;52.062;23.764;2024-01-27T09:14:35;34;30.8;21.2
74430;PMS7003;62863;52.062;23.764;2024-01-27T09:19:29;20.6;19;13.2
74430;PMS7003;62863;52.062;23.764;2024-01-27T09:24:25;12.8;11.4;8.2
74430;PMS7003;62863;52.062;23.764;2024-01-27T09:29:11;14.2;11.4;8.4
74430;PMS7003;62863;52.062;23.764;2024-01-27T09:34:37;13.2;11.2;7.6
74430;PMS7003;62863;52.062;23.764;2024-01-27T09:39:11;14.3;14.3;10.3
74430;PMS7003;62863;52.062;23.764;2024-01-27T09:43:59;19.8;17.8;11.8
74430;PMS7003;62863;52.062;23.764;2024-01-27T09:49:05;24.4;20;13.6
74430;PMS7003;62863;52.062;23.764;2024-01-27T09:54:15;31.8;25.8;18.2
74430;PMS7003;62863;52.062;23.764;2024-01-27T09:59:05;29.5;23.8;16.8
74430;PMS7003;62863;52.062;23.764;2024-01-27T10:03:59;20;17;13.6
74430;PMS7003;62863;52.062;23.764;2024-01-27T10:09:29;16.2;13.8;9.8
74430;PMS7003;62863;52.062;23.764;2024-01-27T10:14:15;15.4;13;9
74430;PMS7003;62863;52.062;23.764;2024-01-27T10:19:37;18.4;14.8;10.8
74430;PMS7003;62863;52.062;23.764;2024-01-27T10:24:05;35;28.8;19.4
74430;PMS7003;62863;52.062;23.764;2024-01-27T10:29:37;35.4;26.4;17.8
74430;PMS7003;62863;52.062;23.764;2024-01-27T10:34:19;22.8;19.4;13.8
74430;PMS7003;62863;52.062;23.764;2024-01-27T10:39:25;20.4;17;12.2
74430;PMS7003;62863;52.062;23.764;2024-01-27T10:43:59;21.8;19.4;12.8
74430;PMS7003;62863;52.062;23.764;2024-01-27T10:49:23;17.2;15.6;10.8
74430;PMS7003;62863;52.062;23.764;2024-01-27T10:54:37;25.2;22.6;14.6
74430;PMS7003;62863;52.062;23.764;2024-01-27T10:59:19;28.8;24.3;17
74430;PMS7003;62863;52.062;23.764;2024-01-27T11:03:59;38.6;33;21.8
74430;PMS7003;62863;52.062;23.764;2024-01-27T11:09:37;27.4;25.2;16.4
74430;PMS7003;62863;52.062;23.764;2024-01-27T11:14:37;28.4;23.6;16.6
74430;PMS7003;62863;52.062;23.764;2024-01-27T11:19:29;39.4;33.6;23.6
74430;PMS7003;62863;52.062;23.764;2024-01-27T11:23:59;30.6;27.2;19.4
74430;PMS7003;62863;52.062;23.764;2024-01-27T11:29:05;19.6;17;11.6
74430;PMS7003;62863;52.062;23.764;2024-01-27T11:34:05;25.2;20.6;15.8
74430;PMS7003;62863;52.062;23.764;2024-01-27T11:38:59;33;30.4;21.6
74430;PMS7003;62863;52.062;23.764;2024-01-27T11:44:29;36.6;31.6;21.8
74430;PMS7003;62863;52.062;23.764;2024-01-27T11:49:12;25;23.4;16
74430;PMS7003;62863;52.062;23.764;2024-01-27T11:54:37;38.8;32.8;21.8
74430;PMS7003;62863;52.062;23.764;2024-01-27T11:59:09;43.5;36.8;23.8
74430;PMS7003;62863;52.062;23.764;2024-01-27T12:04:37;47.4;39.4;27.4
74430;PMS7003;62863;52.062;23.764;2024-01-27T12:09:13;31.4;25.2;17.8
74430;PMS7003;62863;52.062;23.764;2024-01-27T12:14:37;30.8;25.4;17.6
74430;PMS7003;62863;52.062;23.764;2024-01-27T12:19:09;32.8;28.2;19
74430;PMS7003;62863;52.062;23.764;2024-01-27T12:24:17;34.4;31.4;22.4
74430;PMS7003;62863;52.062;23.764;2024-01-27T12:29:40;29.4;26;17.4
74430;PMS7003;62863;52.062;23.764;2024-01-27T12:34:27;30.6;26.4;18.6
74430;PMS7003;62863;52.062;23.764;2024-01-27T12:38:59;32.2;29.2;20.4
74430;PMS7003;62863;52.062;23.764;2024-01-27T12:44:39;28;25;18.4
74430;PMS7003;62863;52.062;23.764;2024-01-27T12:49:39;24.6;21.8;15.4
74430;PMS7003;62863;52.062;23.764;2024-01-27T12:54:29;42.5;34.5;22.5
74430;PMS7003;62863;52.062;23.764;2024-01-27T12:58:59;29.8;25.8;18.2
74430;PMS7003;62863;52.062;23.764;2024-01-27T13:03:59;23;19;13.8
74430;PMS7003;62863;52.062;23.764;2024-01-27T13:09:13;27.4;20.8;15
74430;PMS7003;62863;52.062;23.764;2024-01-27T13:13:59;21.4;18.6;12.4
74430;PMS7003;62863;52.062;23.764;2024-01-27T13:18:59;15;12.5;9.5
74430;PMS7003;62863;52.062;23.764;2024-01-27T13:24:15;12.8;11;8
74430;PMS7003;62863;52.062;23.764;2024-01-27T13:29:17;10.4;9;7
74430;PMS7003;62863;52.062;23.764;2024-01-27T13:34:05;10.8;10.4;8
74430;PMS7003;62863;52.062;23.764;2024-01-27T13:39:25;12.8;11.4;9.2
74430;PMS7003;62863;52.062;23.764;2024-01-27T13:44:01;9.4;8;6.2
74430;PMS7003;62863;52.062;23.764;2024-01-27T13:49:25;13.4;12.2;8.6
74430;PMS7003;62863;52.062;23.764;2024-01-27T13:54:13;15.6;14;9.8
74430;PMS7003;62863;52.062;23.764;2024-01-27T13:59:17;13.6;11.4;8.4
74430;PMS7003;62863;52.062;23.764;2024-01-27T14:04:27;14.4;12.4;9.6
74430;PMS7003;62863;52.062;23.764;2024-01-27T14:09:13;19;17.8;12.4
74430;PMS7003;62863;52.062;23.764;2024-01-27T14:14:27;24.8;21.2;15.2
74430;PMS7003;62863;52.062;23.764;2024-01-27T14:19:01;12.5;10.8;8
74430;PMS7003;62863;52.062;23.764;2024-01-27T14:24:39;21.8;19.8;14.4
74430;PMS7003;62863;52.062;23.764;2024-01-27T14:29:17;25.6;20.6;14
74430;PMS7003;62863;52.062;23.764;2024-01-27T14:34:21;28.4;22.2;16
74430;PMS7003;62863;52.062;23.764;2024-01-27T14:38:59;20.4;15.8;11.2
74430;PMS7003;62863;52.062;23.764;2024-01-27T14:43:59;20;16;12.4
74430;PMS7003;62863;52.062;23.764;2024-01-27T14:49:11;32.6;27.8;19.2
74430;PMS7003;62863;52.062;23.764;2024-01-27T14:54:13;33.8;26.8;18.6
74430;PMS7003;62863;52.062;23.764;2024-01-27T14:59:05;25.2;22.2;17.4
74430;PMS7003;62863;52.062;23.764;2024-01-27T15:04:39;19;13.8;10.6
74430;PMS7003;62863;52.062;23.764;2024-01-27T15:09:29;16.3;14.3;10.5
74430;PMS7003;62863;52.062;23.764;2024-01-27T15:14:39;14.8;13;10.2
74430;PMS7003;62863;52.062;23.764;2024-01-27T15:19:39;15.2;13.8;9.6
74430;PMS7003;62863;52.062;23.764;2024-01-27T15:24:15;17.4;15.8;12
74430;PMS7003;62863;52.062;23.764;2024-01-27T15:29:39;17.8;15;10.8
74430;PMS7003;62863;52.062;23.764;2024-01-27T15:34:39;13.8;12.4;8.4
74430;PMS7003;62863;52.062;23.764;2024-01-27T15:39:27;15;13;10
74430;PMS7003;62863;52.062;23.764;2024-01-27T15:44:13;12.6;11;7.8
74430;PMS7003;62863;52.062;23.764;2024-01-27T15:49:19;15;13.4;10.8
74430;PMS7003;62863;52.062;23.764;2024-01-27T15:54:29;16.8;12.8;10
74430;PMS7003;62863;52.062;23.764;2024-01-27T15:59:37;14.4;14;10.2
74430;PMS7003;62863;52.062;23.764;2024-01-27T16:04:17;14.4;12;8.2
74430;PMS7003;62863;52.062;23.764;2024-01-27T16:09:37;10.5;9;5.8
74430;PMS7003;62863;52.062;23.764;2024-01-27T16:14:05;8.4;7.2;5
74430;PMS7003;62863;52.062;23.764;2024-01-27T16:19:06;10.6;9.8;6.8
74430;PMS7003;62863;52.062;23.764;2024-01-27T16:23:59;15.6;12.8;10
74430;PMS7003;62863;52.062;23.764;2024-01-27T16:29:13;34;28.6;20
74430;PMS7003;62863;52.062;23.764;2024-01-27T16:34:17;45.8;36.2;25.8
74430;PMS7003;62863;52.062;23.764;2024-01-27T16:39:39;42;34;23
74430;PMS7003;62863;52.062;23.764;2024-01-27T16:44:01;40.6;35.2;24.8
74430;PMS7003;62863;52.062;23.764;2024-01-27T16:49:39;31.4;28.6;19.4
74430;PMS7003;62863;52.062;23.764;2024-01-27T16:54:39;36.8;31.8;23.2
74430;PMS7003;62863;52.062;23.764;2024-01-27T16:58:59;56.4;47.2;29
74430;PMS7003;62863;52.062;23.764;2024-01-27T17:04:40;64.6;49.4;30.8
74430;PMS7003;62863;52.062;23.764;2024-01-27T17:09:39;54.5;45;30.5
74430;PMS7003;62863;52.062;23.764;2024-01-27T17:14:27;44;35.8;24
74430;PMS7003;62863;52.062;23.764;2024-01-27T17:19:13;29.8;25.6;18.4
74430;PMS7003;62863;52.062;23.764;2024-01-27T17:24:17;36;30.4;21.4
74430;PMS7003;62863;52.062;23.764;2024-01-27T17:29:29;33.8;28;20.2
74430;PMS7003;62863;52.062;23.764;2024-01-27T17:34:39;29.2;24.4;16
74430;PMS7003;62863;52.062;23.764;2024-01-27T17:39:05;20.4;18.6;13.4
74430;PMS7003;62863;52.062;23.764;2024-01-27T17:44:39;21.8;18.8;14
74430;PMS7003;62863;52.062;23.764;2024-01-27T17:49:29;18.8;17;12.2
74430;PMS7003;62863;52.062;23.764;2024-01-27T17:54:02;20.4;16.4;11.8
74430;PMS7003;62863;52.062;23.764;2024-01-27T17:58:59;18.4;17.2;12.2
74430;PMS7003;62863;52.062;23.764;2024-01-27T18:04:03;16;14.2;10.2
74430;PMS7003;62863;52.062;23.764;2024-01-27T18:09:15;17.4;14.8;10.8
74430;PMS7003;62863;52.062;23.764;2024-01-27T18:14:13;16.8;15.3;10.3
74430;PMS7003;62863;52.062;23.764;2024-01-27T18:19:27;15;12.4;9
74430;PMS7003;62863;52.062;23.764;2024-01-27T18:23:59;14.4;11.8;8.8
74430;PMS7003;62863;52.062;23.764;2024-01-27T18:29:37;16;13.2;10.6
74430;PMS7003;62863;52.062;23.764;2024-01-27T18:34:13;14.6;12.4;8.8
74430;PMS7003;62863;52.062;23.764;2024-01-27T18:39:37;17;14.2;10.6
74430;PMS7003;62863;52.062;23.764;2024-01-27T18:44:07;20;18;12
74430;PMS7003;62863;52.062;23.764;2024-01-27T18:49:15;24.2;20.4;14.6
74430;PMS7003;62863;52.062;23.764;2024-01-27T18:53:59;20.2;18.6;12.6
74430;PMS7003;62863;52.062;23.764;2024-01-27T18:59:07;16.4;14.2;10.2
74430;PMS7003;62863;52.062;23.764;2024-01-27T19:04:39;12;10.6;7.8
74430;PMS7003;62863;52.062;23.764;2024-01-27T19:09:25;15.2;10.4;6.8
74430;PMS7003;62863;52.062;23.764;2024-01-27T19:14:00;11;9.5;6
74430;PMS7003;62863;52.062;23.764;2024-01-27T19:19:39;13.4;11;7.8
74430;PMS7003;62863;52.062;23.764;2024-01-27T19:24:39;17.8;15.2;10
74430;PMS7003;62863;52.062;23.764;2024-01-27T19:29:27;18.4;16.6;11.8
74430;PMS7003;62863;52.062;23.764;2024-01-27T19:34:00;18;15;10
74430;PMS7003;62863;52.062;23.764;2024-01-27T19:39:07;17.8;16;11.4
74430;PMS7003;62863;52.062;23.764;2024-01-27T19:44:05;22;19.3;14.3
74430;PMS7003;62863;52.062;23.764;2024-01-27T19:49:09;18.6;17.2;12.2
74430;PMS7003;62863;52.062;23.764;2024-01-27T19:54:05;16.6;13.6;8.8
74430;PMS7003;62863;52.062;23.764;2024-01-27T19:59:15;14.8;13.4;9.4
74430;PMS7003;62863;52.062;23.764;2024-01-27T20:04:25;14;12;8.8
74430;PMS7003;62863;52.062;23.764;2024-01-27T20:09:15;12.6;11.6;8.6
74430;PMS7003;62863;52.062;23.764;2024-01-27T20:14:39;16.5;13.8;10.3
74430;PMS7003;62863;52.062;23.764;2024-01-27T20:19:13;15.6;13.2;10
74430;PMS7003;62863;52.062;23.764;2024-01-27T20:24:27;15.4;13.4;9.6
74430;PMS7003;62863;52.062;23.764;2024-01-27T20:29:13;11.8;11.4;7.8
74430;PMS7003;62863;52.062;23.764;2024-01-27T20:34:25;14.4;11.8;7.2
74430;PMS7003;62863;52.062;23.764;2024-01-27T20:39:39;13.6;11.4;7.6
74430;PMS7003;62863;52.062;23.764;2024-01-27T20:44:27;16.4;11.8;8.6
74430;PMS7003;62863;52.062;23.764;2024-01-27T20:49:17;20.2;16.6;11
74430;PMS7003;62863;52.062;23.764;2024-01-27T20:54:39;17.2;15.6;10.6
74430;PMS7003;62863;52.062;23.764;2024-01-27T20:59:39;20.4;16.8;12.8
74430;PMS7003;62863;52.062;23.764;2024-01-27T21:04:23;26.8;23.4;17.2
74430;PMS7003;62863;52.062;23.764;2024-01-27T21:09:11;31.2;27.6;20.2
74430;PMS7003;62863;52.062;23.764;2024-01-27T21:14:05;23;21.3;14
74430;PMS7003;62863;52.062;23.764;2024-01-27T21:19:05;19;16.4;10.8
74430;PMS7003;62863;52.062;23.764;2024-01-27T21:24:15;18.8;15.4;10.6
74430;PMS7003;62863;52.062;23.764;2024-01-27T21:29:05;32.6;28.8;18.8
74430;PMS7003;62863;52.062;23.764;2024-01-27T21:34:19;37.3;32.3;22.5
74430;PMS7003;62863;52.062;23.764;2024-01-27T21:39:25;27.6;26;17.4
74430;PMS7003;62863;52.062;23.764;2024-01-27T21:44:15;24.5;21.8;15.8
74430;PMS7003;62863;52.062;23.764;2024-01-27T21:49:39;24;18.6;12
74430;PMS7003;62863;52.062;23.764;2024-01-27T21:54:29;18.2;16;11.4
74430;PMS7003;62863;52.062;23.764;2024-01-27T21:59:19;18;16.2;11.4
74430;PMS7003;62863;52.062;23.764;2024-01-27T22:04:27;16;14.2;10.2
74430;PMS7003;62863;52.062;23.764;2024-01-27T22:09:25;15.8;14.2;10
74430;PMS7003;62863;52.062;23.764;2024-01-27T22:14:27;15.6;14.4;10.2
74430;PMS7003;62863;52.062;23.764;2024-01-27T22:19:05;14.8;14.2;9
74430;PMS7003;62863;52.062;23.764;2024-01-27T22:24:18;14.4;13.2;9.2
74430;PMS7003;62863;52.062;23.764;2024-01-27T22:29:17;11.2;10.8;7.4
74430;PMS7003;62863;52.062;23.764;2024-01-27T22:34:39;14;11;7
74430;PMS7003;62863;52.062;23.764;2024-01-27T22:39:11;10.8;9.4;6.8
74430;PMS7003;62863;52.062;23.764;2024-01-27T22:44:15;11.6;9.2;6.6
74430;PMS7003;62863;52.062;23.764;2024-01-27T22:48:59;11.8;9;6.6
74430;PMS7003;62863;52.062;23.764;2024-01-27T22:53:59;10;8.2;6
74430;PMS7003;62863;52.062;23.764;2024-01-27T22:59:05;11.8;8.8;4.8
74430;PMS7003;62863;52.062;23.764;2024-01-27T23:03:59;10.2;9.6;7.4
74430;PMS7003;62863;52.062;23.764;2024-01-27T23:09:17;10;9;6
74430;PMS7003;62863;52.062;23.764;2024-01-27T23:14:39;11.4;8.4;5.2
74430;PMS7003;62863;52.062;23.764;2024-01-27T23:19:29;9.4;6.6;4.8
74430;PMS7003;62863;52.062;23.764;2024-01-27T23:24:39;8;6;4.6
74430;PMS7003;62863;52.062;23.764;2024-01-27T23:29:40;7.8;6.2;4.6
74430;PMS7003;62863;52.062;23.764;2024-01-27T23:34:09;6.5;5.3;3
74430;PMS7003;62863;52.062;23.764;2024-01-27T23:39:39;8.6;5.6;3.8
74430;PMS7003;62863;52.062;23.764;2024-01-27T23:44:39;7;5.2;3.8
74430;PMS7003;62863;52.062;23.764;2024-01-27T23:49:27;8.6;7;4.6
74430;PMS7003;62863;52.062;23.764;2024-01-27T23:54:07;5.2;4.4;3.6
74430;PMS7003;62863;52.062;23.764;2024-01-27T23:59:15;5.2;5;3.6
